Time;durP1;ratioP1;P1;durP2;ratioP2;P2;SDS_P1;SDS_P2;PMS_P1;PMS_P2;Temp;Humidity;BMP_temperature;BMP_pressure;BME280_temperature;BME280_humidity;BME280_pressure;Samples;Min_cycle;Max_cycle;Signal;HPM_P1;HPM_P2
2023/01/09 00:00:43;;;;;;;2.13;1.77;;;;;;;;;;5083186;28;20198;-54
2023/01/09 00:03:09;;;;;;;1.83;1.70;;;;;;;;;;5075037;28;20210;-54
2023/01/09 00:05:35;;;;;;;1.77;1.67;;;;;;;;;;5078019;28;20185;-55
2023/01/09 00:08:01;;;;;;;1.83;1.73;;;;;;;;;;5080561;28;20168;-55
2023/01/09 00:10:27;;;;;;;1.93;1.70;;;;;;;;;;5075989;28;20185;-55
2023/01/09 00:12:53;;;;;;;2.13;1.63;;;;;;;;;;5079405;28;20177;-54
2023/01/09 00:15:19;;;;;;;2.83;1.70;;;;;;;;;;5074526;28;20168;-54
2023/01/09 00:17:46;;;;;;;2.77;1.90;;;;;;;;;;5083431;28;20250;-54
2023/01/09 00:20:13;;;;;;;2.23;1.90;;;;;;;;;;5080618;28;20175;-54
2023/01/09 00:22:39;;;;;;;1.83;1.73;;;;;;;;;;5078251;28;20547;-54
2023/01/09 00:25:05;;;;;;;2.23;1.63;;;;;;;;;;5084785;28;20545;-54
2023/01/09 00:27:32;;;;;;;2.00;1.80;;;;;;;;;;5077014;28;20187;-54
2023/01/09 00:29:58;;;;;;;2.57;1.63;;;;;;;;;;5078289;28;20901;-54
2023/01/09 00:32:25;;;;;;;1.27;1.27;;;;;;;;;;5077391;28;20935;-54
2023/01/09 00:34:51;;;;;;;1.93;1.60;;;;;;;;;;5081790;28;20188;-54
2023/01/09 00:37:17;;;;;;;2.07;1.70;;;;;;;;;;5083704;28;20180;-54
2023/01/09 00:39:43;;;;;;;1.53;1.43;;;;;;;;;;5077201;28;20181;-55
2023/01/09 00:42:15;;;;;;;1.60;1.50;;;;;;;;;;5078095;28;20230;-55
2023/01/09 00:44:50;;;;;;;1.67;1.57;;;;;;;;;;5081515;28;20233;-54
2023/01/09 00:47:28;;;;;;;1.50;1.40;;;;;;;;;;5080349;28;20194;-57
2023/01/09 00:49:57;;;;;;;1.63;1.53;;;;;;;;;;5080752;28;20184;-54
2023/01/09 00:52:24;;;;;;;1.73;1.50;;;;;;;;;;5079290;28;20168;-54
2023/01/09 00:54:50;;;;;;;2.43;1.47;;;;;;;;;;5070808;28;20188;-54
2023/01/09 00:57:16;;;;;;;1.50;1.40;;;;;;;;;;5074159;28;20188;-54
2023/01/09 00:59:42;;;;;;;1.50;1.40;;;;;;;;;;5070940;28;20176;-54
2023/01/09 01:02:08;;;;;;;1.20;1.10;;;;;;;;;;5081870;28;20182;-54
2023/01/09 01:07:37;;;;;;;1.30;1.20;;;;;;;;;;5080079;28;20354;-55
2023/01/09 01:10:09;;;;;;;1.03;1.03;;;;;;;;;;5081757;28;20167;-54
2023/01/09 01:12:35;;;;;;;1.07;1.07;;;;;;;;;;5078933;28;20181;-54
2023/01/09 01:15:01;;;;;;;1.20;1.17;;;;;;;;;;5084008;28;20168;-54
2023/01/09 01:17:37;;;;;;;1.67;1.20;;;;;;;;;;5075955;28;20211;-54
2023/01/09 01:20:04;;;;;;;1.17;1.10;;;;;;;;;;5082933;28;20238;-54
2023/01/09 01:22:30;;;;;;;1.00;1.00;;;;;;;;;;5078347;28;20887;-54
2023/01/09 01:24:56;;;;;;;1.00;1.00;;;;;;;;;;5076894;28;20269;-54
2023/01/09 01:27:22;;;;;;;1.20;1.10;;;;;;;;;;5061934;28;20267;-54
2023/01/09 01:29:48;;;;;;;1.50;1.40;;;;;;;;;;5056846;28;20203;-54
2023/01/09 01:32:14;;;;;;;1.13;1.13;;;;;;;;;;5079351;28;20664;-54
2023/01/09 01:34:40;;;;;;;1.00;1.00;;;;;;;;;;5073843;28;20261;-53
2023/01/09 01:37:06;;;;;;;1.00;1.00;;;;;;;;;;5055792;28;20678;-54
2023/01/09 01:39:32;;;;;;;0.90;0.90;;;;;;;;;;5066579;28;20707;-54
2023/01/09 01:41:58;;;;;;;1.30;1.30;;;;;;;;;;5078262;28;20579;-54
2023/01/09 01:44:43;;;;;;;1.00;1.00;;;;;;;;;;5079000;28;20196;-54
2023/01/09 01:47:09;;;;;;;1.70;1.20;;;;;;;;;;5076214;28;21951;-53
2023/01/09 01:49:35;;;;;;;1.10;1.10;;;;;;;;;;5075176;28;20638;-54
2023/01/09 01:52:01;;;;;;;1.00;1.00;;;;;;;;;;5074269;28;20191;-54
2023/01/09 01:54:29;;;;;;;1.10;1.03;;;;;;;;;;5079542;28;20598;-54
2023/01/09 01:56:58;;;;;;;1.00;1.00;;;;;;;;;;5082084;28;20646;-54
2023/01/09 01:59:26;;;;;;;1.30;1.20;;;;;;;;;;5075279;28;20187;-54
2023/01/09 02:01:54;;;;;;;0.90;0.90;;;;;;;;;;5084273;28;20509;-54
2023/01/09 02:04:20;;;;;;;1.00;1.00;;;;;;;;;;5071423;28;20207;-54
2023/01/09 02:06:47;;;;;;;0.90;0.90;;;;;;;;;;5075197;28;20187;-54
2023/01/09 02:09:16;;;;;;;1.17;1.17;;;;;;;;;;5077087;28;20661;-54
2023/01/09 02:11:46;;;;;;;1.03;1.00;;;;;;;;;;5080170;28;20626;-54
2023/01/09 02:14:12;;;;;;;0.93;0.93;;;;;;;;;;5079805;28;20263;-54
2023/01/09 02:17:08;;;;;;;1.20;1.10;;;;;;;;;;5078285;28;20353;-54
2023/01/09 02:19:37;;;;;;;0.80;0.80;;;;;;;;;;5057125;28;20202;-54
2023/01/09 02:22:22;;;;;;;0.90;0.90;;;;;;;;;;5070887;28;20188;-54
2023/01/09 02:25:06;;;;;;;1.10;1.07;;;;;;;;;;5071689;28;20219;-54
2023/01/09 02:27:50;;;;;;;1.00;1.00;;;;;;;;;;5059378;28;20235;-54
2023/01/09 02:30:31;;;;;;;2.60;2.40;;;;;;;;;;5070236;28;20697;-54
2023/01/09 02:33:12;;;;;;;0.97;0.90;;;;;;;;;;5064909;28;20633;-54
2023/01/09 02:35:47;;;;;;;0.90;0.90;;;;;;;;;;5065695;28;20192;-54
2023/01/09 02:38:36;;;;;;;1.00;1.00;;;;;;;;;;5063659;28;20176;-54
2023/01/09 02:41:06;;;;;;;0.87;0.87;;;;;;;;;;5067068;28;20267;-54
2023/01/09 02:43:32;;;;;;;1.10;1.10;;;;;;;;;;5069183;28;20242;-54
2023/01/09 02:45:58;;;;;;;1.40;1.30;;;;;;;;;;5071220;28;20659;-54
2023/01/09 02:48:24;;;;;;;1.20;1.10;;;;;;;;;;5050645;28;20176;-54
2023/01/09 02:51:10;;;;;;;2.00;1.10;;;;;;;;;;5064812;28;20185;-54
2023/01/09 02:53:39;;;;;;;0.90;0.90;;;;;;;;;;5060422;28;20270;-54
2023/01/09 02:56:28;;;;;;;1.20;1.20;;;;;;;;;;5067602;28;20662;-54
2023/01/09 02:59:03;;;;;;;0.97;0.97;;;;;;;;;;5061749;28;21239;-54
2023/01/09 03:01:50;;;;;;;1.33;1.23;;;;;;;;;;5069361;28;20830;-54
2023/01/09 03:04:40;;;;;;;1.30;1.20;;;;;;;;;;5059162;28;20226;-54
2023/01/09 03:07:30;;;;;;;3.60;1.10;;;;;;;;;;5030227;28;20234;-54
2023/01/09 03:10:01;;;;;;;1.70;1.60;;;;;;;;;;5068661;28;20176;-54
2023/01/09 03:12:29;;;;;;;1.33;1.23;;;;;;;;;;5070259;28;20738;-54
2023/01/09 03:14:57;;;;;;;1.30;1.20;;;;;;;;;;5065935;28;20532;-54
2023/01/09 03:17:39;;;;;;;1.97;1.20;;;;;;;;;;5070687;28;20725;-54
2023/01/09 03:20:07;;;;;;;1.73;1.60;;;;;;;;;;5068992;28;20176;-54
2023/01/09 03:22:33;;;;;;;2.00;1.40;;;;;;;;;;5065728;28;20200;-54
2023/01/09 03:24:59;;;;;;;2.70;1.20;;;;;;;;;;5076914;28;20230;-55
2023/01/09 03:27:25;;;;;;;1.33;1.20;;;;;;;;;;5076727;28;20179;-54
2023/01/09 03:29:52;;;;;;;2.43;1.30;;;;;;;;;;5083271;28;20188;-54
2023/01/09 03:32:18;;;;;;;1.57;1.10;;;;;;;;;;5079912;28;20657;-54
2023/01/09 03:34:44;;;;;;;1.23;1.20;;;;;;;;;;5081142;28;20169;-54
2023/01/09 03:37:10;;;;;;;2.63;1.53;;;;;;;;;;5072207;28;20176;-54
2023/01/09 03:39:36;;;;;;;1.00;0.87;;;;;;;;;;5077940;28;20183;-54
2023/01/09 03:42:02;;;;;;;1.50;1.40;;;;;;;;;;5081278;28;20188;-54
2023/01/09 03:44:28;;;;;;;2.20;1.40;;;;;;;;;;5074770;28;20341;-54
2023/01/09 03:46:54;;;;;;;1.63;1.30;;;;;;;;;;5075691;28;20258;-54
2023/01/09 03:49:20;;;;;;;2.07;1.50;;;;;;;;;;5080819;28;20175;-54
2023/01/09 03:51:46;;;;;;;2.07;1.40;;;;;;;;;;5073646;28;20267;-54
2023/01/09 03:54:12;;;;;;;1.70;1.30;;;;;;;;;;5081442;28;20179;-54
2023/01/09 03:56:38;;;;;;;2.03;1.53;;;;;;;;;;5070297;28;20181;-54
2023/01/09 03:59:24;;;;;;;2.27;1.20;;;;;;;;;;5080239;28;20176;-54
2023/01/09 04:01:50;;;;;;;2.23;1.60;;;;;;;;;;5076474;28;20188;-54
2023/01/09 04:04:16;;;;;;;1.50;1.37;;;;;;;;;;5076019;28;20365;-54
2023/01/09 04:06:42;;;;;;;2.13;1.70;;;;;;;;;;5079792;28;20668;-55
2023/01/09 04:09:08;;;;;;;1.40;1.30;;;;;;;;;;5069852;28;20176;-55
2023/01/09 04:11:34;;;;;;;1.30;1.20;;;;;;;;;;5073992;28;20176;-54
2023/01/09 04:14:00;;;;;;;1.53;1.43;;;;;;;;;;5071913;28;20176;-55
2023/01/09 04:16:26;;;;;;;2.33;2.13;;;;;;;;;;5081896;28;20213;-55
2023/01/09 04:18:53;;;;;;;3.07;1.70;;;;;;;;;;5076759;28;20172;-55
2023/01/09 04:21:19;;;;;;;3.63;1.87;;;;;;;;;;5078214;28;20197;-54
2023/01/09 04:23:45;;;;;;;1.90;1.57;;;;;;;;;;5068691;28;20322;-54
2023/01/09 04:26:11;;;;;;;2.47;1.50;;;;;;;;;;5078526;28;20224;-55
2023/01/09 04:28:37;;;;;;;3.30;1.77;;;;;;;;;;5074969;28;20181;-55
2023/01/09 04:31:04;;;;;;;3.67;1.87;;;;;;;;;;5060530;28;20221;-54
2023/01/09 04:33:30;;;;;;;2.73;1.70;;;;;;;;;;5081738;28;20308;-54
2023/01/09 04:35:56;;;;;;;3.27;1.83;;;;;;;;;;5082489;28;20174;-55
2023/01/09 04:38:22;;;;;;;1.80;1.53;;;;;;;;;;5081242;28;20815;-55
2023/01/09 04:40:48;;;;;;;1.83;1.67;;;;;;;;;;5059868;28;20216;-55
2023/01/09 04:43:14;;;;;;;3.27;1.67;;;;;;;;;;5079882;28;20646;-54
2023/01/09 04:45:40;;;;;;;2.83;1.30;;;;;;;;;;5086909;28;20626;-55
2023/01/09 04:48:06;;;;;;;3.20;1.70;;;;;;;;;;5077657;28;20185;-55
2023/01/09 04:50:32;;;;;;;3.97;1.70;;;;;;;;;;5075962;28;20179;-55
2023/01/09 04:52:58;;;;;;;2.43;1.43;;;;;;;;;;5077006;28;20207;-55
2023/01/09 04:55:25;;;;;;;2.23;1.50;;;;;;;;;;5076809;28;20230;-55
2023/01/09 04:57:51;;;;;;;5.53;1.83;;;;;;;;;;5076478;28;21249;-55
2023/01/09 05:00:17;;;;;;;2.10;1.70;;;;;;;;;;5084019;28;20177;-55
2023/01/09 05:02:43;;;;;;;1.20;1.10;;;;;;;;;;5082540;28;20664;-55
2023/01/09 05:05:09;;;;;;;2.93;2.00;;;;;;;;;;5065935;28;20219;-55
2023/01/09 05:07:36;;;;;;;2.33;1.20;;;;;;;;;;5077238;28;20951;-55
2023/01/09 05:10:02;;;;;;;2.07;1.53;;;;;;;;;;5078308;28;20297;-55
2023/01/09 05:12:28;;;;;;;2.93;1.70;;;;;;;;;;5080861;28;20180;-55
2023/01/09 05:14:54;;;;;;;1.90;1.40;;;;;;;;;;5082384;28;20226;-55
2023/01/09 05:17:20;;;;;;;1.27;1.17;;;;;;;;;;5062813;28;20273;-55
2023/01/09 05:19:46;;;;;;;1.57;1.30;;;;;;;;;;5073935;28;20225;-55
2023/01/09 05:22:12;;;;;;;2.80;1.70;;;;;;;;;;5078833;28;20180;-55
2023/01/09 05:24:38;;;;;;;1.53;1.43;;;;;;;;;;5078230;28;20470;-54
2023/01/09 05:27:04;;;;;;;1.67;1.47;;;;;;;;;;5080870;28;20179;-54
2023/01/09 05:29:30;;;;;;;3.37;2.27;;;;;;;;;;5079365;28;20180;-54
2023/01/09 05:31:57;;;;;;;1.63;1.30;;;;;;;;;;5077516;28;20187;-55
2023/01/09 05:34:23;;;;;;;3.10;2.00;;;;;;;;;;5078369;28;20545;-55
2023/01/09 05:36:49;;;;;;;3.83;1.60;;;;;;;;;;5081724;28;20183;-54
2023/01/09 05:39:15;;;;;;;5.93;1.63;;;;;;;;;;5071678;28;20183;-55
2023/01/09 05:41:41;;;;;;;2.57;1.37;;;;;;;;;;5070624;28;20238;-55
2023/01/09 05:44:07;;;;;;;3.55;1.73;;;;;;;;;;5076254;28;20791;-54
2023/01/09 05:46:33;;;;;;;14.03;2.73;;;;;;;;;;5079619;28;20188;-54
2023/01/09 05:48:59;;;;;;;7.90;2.30;;;;;;;;;;5071516;28;20172;-54
2023/01/09 05:51:25;;;;;;;8.57;2.33;;;;;;;;;;5080328;28;20163;-54
2023/01/09 05:53:52;;;;;;;5.43;2.10;;;;;;;;;;5073891;28;20455;-54
2023/01/09 05:56:18;;;;;;;5.03;1.60;;;;;;;;;;5077192;28;20645;-54
2023/01/09 05:58:44;;;;;;;2.50;1.70;;;;;;;;;;5078967;28;20271;-54
2023/01/09 06:01:10;;;;;;;4.57;1.67;;;;;;;;;;5073204;28;20176;-54
2023/01/09 06:03:36;;;;;;;2.37;1.90;;;;;;;;;;5081630;28;20202;-54
2023/01/09 06:06:02;;;;;;;3.90;1.53;;;;;;;;;;5079064;28;20274;-54
2023/01/09 06:08:28;;;;;;;3.07;1.50;;;;;;;;;;5076924;28;20202;-54
2023/01/09 06:10:54;;;;;;;4.90;1.80;;;;;;;;;;5082711;28;20190;-54
2023/01/09 06:13:20;;;;;;;2.53;1.60;;;;;;;;;;5071319;28;20177;-54
2023/01/09 06:15:47;;;;;;;3.20;1.47;;;;;;;;;;5080020;28;20575;-54
2023/01/09 06:18:13;;;;;;;2.43;1.60;;;;;;;;;;5049843;28;20605;-54
2023/01/09 06:20:39;;;;;;;1.80;1.40;;;;;;;;;;5052774;28;20674;-54
2023/01/09 06:23:05;;;;;;;4.07;1.30;;;;;;;;;;5069933;28;20175;-54
2023/01/09 06:25:31;;;;;;;3.63;1.80;;;;;;;;;;5081278;28;20284;-54
2023/01/09 06:27:57;;;;;;;1.40;1.00;;;;;;;;;;5059794;28;20168;-54
2023/01/09 06:30:24;;;;;;;2.27;1.70;;;;;;;;;;5078610;28;20171;-54
2023/01/09 06:32:50;;;;;;;1.50;1.40;;;;;;;;;;5071468;28;20800;-54
2023/01/09 06:35:21;;;;;;;2.80;1.63;;;;;;;;;;5080289;28;20211;-54
2023/01/09 06:37:47;;;;;;;3.17;1.70;;;;;;;;;;5079987;28;20192;-54
2023/01/09 06:40:13;;;;;;;1.67;1.27;;;;;;;;;;5074498;28;20681;-54
2023/01/09 06:42:42;;;;;;;3.07;1.63;;;;;;;;;;5072772;28;20210;-54
2023/01/09 06:45:09;;;;;;;2.83;1.50;;;;;;;;;;5074245;28;20200;-54
2023/01/09 06:47:35;;;;;;;4.43;1.47;;;;;;;;;;5080021;28;20173;-54
2023/01/09 06:50:01;;;;;;;5.80;1.70;;;;;;;;;;5076712;28;20531;-54
2023/01/09 06:52:27;;;;;;;1.43;1.27;;;;;;;;;;5073986;28;20172;-54
2023/01/09 06:54:53;;;;;;;2.27;1.40;;;;;;;;;;5069337;28;20894;-54
2023/01/09 06:57:19;;;;;;;3.70;1.60;;;;;;;;;;5071128;28;20194;-54
2023/01/09 06:59:45;;;;;;;2.10;1.57;;;;;;;;;;5074803;28;20172;-54
2023/01/09 07:02:17;;;;;;;3.07;1.20;;;;;;;;;;5078063;28;20184;-54
2023/01/09 07:04:43;;;;;;;3.13;1.63;;;;;;;;;;5072649;28;20734;-54
2023/01/09 07:07:09;;;;;;;4.10;1.50;;;;;;;;;;5072486;28;20649;-54
2023/01/09 07:09:35;;;;;;;3.57;1.53;;;;;;;;;;5071491;28;20187;-54
2023/01/09 07:12:02;;;;;;;3.00;1.73;;;;;;;;;;5076384;28;20496;-54
2023/01/09 07:14:28;;;;;;;1.90;1.43;;;;;;;;;;5080757;28;20190;-54
2023/01/09 07:16:54;;;;;;;3.13;1.23;;;;;;;;;;5080625;28;20210;-54
2023/01/09 07:19:20;;;;;;;5.77;2.00;;;;;;;;;;5079980;28;20195;-54
2023/01/09 07:21:46;;;;;;;2.50;1.27;;;;;;;;;;5074838;28;20195;-54
2023/01/09 07:24:12;;;;;;;3.03;1.80;;;;;;;;;;5069594;28;20784;-54
2023/01/09 07:26:40;;;;;;;2.47;1.40;;;;;;;;;;5068918;28;20574;-54
2023/01/09 07:29:06;;;;;;;3.13;1.40;;;;;;;;;;5074064;28;20198;-54
2023/01/09 07:31:32;;;;;;;4.73;1.77;;;;;;;;;;5077709;28;20173;-54
2023/01/09 07:33:58;;;;;;;3.03;1.40;;;;;;;;;;5061267;28;20507;-54
2023/01/09 07:36:25;;;;;;;4.33;1.70;;;;;;;;;;5083174;28;20223;-54
2023/01/09 07:38:51;;;;;;;2.40;1.50;;;;;;;;;;5073932;28;20388;-54
2023/01/09 07:41:17;;;;;;;2.20;1.43;;;;;;;;;;5077219;28;20677;-54
2023/01/09 07:43:43;;;;;;;2.10;1.50;;;;;;;;;;5076653;28;20321;-54
2023/01/09 07:46:12;;;;;;;3.63;2.27;;;;;;;;;;5076156;28;20179;-54
2023/01/09 07:48:38;;;;;;;4.33;1.57;;;;;;;;;;5047131;28;20230;-55
2023/01/09 07:51:05;;;;;;;2.93;1.57;;;;;;;;;;5079906;28;20243;-54
2023/01/09 07:53:31;;;;;;;2.87;1.60;;;;;;;;;;5058858;28;20198;-54
2023/01/09 07:55:57;;;;;;;2.70;2.10;;;;;;;;;;5078398;28;20673;-54
2023/01/09 07:58:23;;;;;;;5.10;1.80;;;;;;;;;;5076021;28;20690;-54
2023/01/09 08:00:55;;;;;;;4.90;1.50;;;;;;;;;;5080281;28;20215;-54
2023/01/09 08:03:21;;;;;;;1.80;1.60;;;;;;;;;;5078845;28;20661;-54
2023/01/09 08:05:47;;;;;;;2.47;1.50;;;;;;;;;;5080993;28;20169;-54
2023/01/09 08:08:13;;;;;;;3.60;1.40;;;;;;;;;;5081099;28;21646;-54
2023/01/09 08:10:40;;;;;;;2.63;1.60;;;;;;;;;;5079251;28;20218;-54
2023/01/09 08:13:06;;;;;;;2.40;1.37;;;;;;;;;;5078156;28;20171;-54
2023/01/09 08:15:32;;;;;;;1.67;1.33;;;;;;;;;;5081949;28;20664;-54
2023/01/09 08:17:58;;;;;;;3.00;1.70;;;;;;;;;;5073690;28;20666;-54
2023/01/09 08:20:24;;;;;;;4.40;1.77;;;;;;;;;;5076133;28;20173;-54
2023/01/09 08:22:52;;;;;;;3.63;1.97;;;;;;;;;;5064910;28;20176;-54
2023/01/09 08:25:18;;;;;;;3.27;1.80;;;;;;;;;;5077587;27;20216;-54
2023/01/09 08:27:44;;;;;;;6.37;2.10;;;;;;;;;;5081942;28;20180;-54
2023/01/09 08:30:10;;;;;;;3.00;1.80;;;;;;;;;;5081814;28;20720;-54
2023/01/09 08:32:37;;;;;;;3.87;1.70;;;;;;;;;;5072543;28;20670;-54
2023/01/09 08:35:03;;;;;;;6.67;1.60;;;;;;;;;;5084128;28;20529;-54
2023/01/09 08:37:29;;;;;;;6.57;2.00;;;;;;;;;;5072272;28;20172;-54
2023/01/09 08:39:55;;;;;;;4.50;2.43;;;;;;;;;;5075218;28;20188;-54
2023/01/09 08:47:51;;;;;;;3.60;1.50;;;;;;;;;;5072433;28;20268;-54
2023/01/09 08:50:17;;;;;;;6.13;2.60;;;;;;;;;;5076975;28;20176;-54
2023/01/09 08:52:43;;;;;;;2.70;1.50;;;;;;;;;;5084274;28;20219;-54
2023/01/09 08:55:10;;;;;;;3.63;1.40;;;;;;;;;;5082276;28;20172;-54
2023/01/09 08:57:36;;;;;;;2.70;1.70;;;;;;;;;;5074623;28;20204;-54
2023/01/09 09:00:03;;;;;;;4.83;1.63;;;;;;;;;;5084322;28;20187;-54
2023/01/09 09:02:29;;;;;;;2.40;1.67;;;;;;;;;;5081442;28;20197;-54
2023/01/09 09:04:55;;;;;;;5.60;1.83;;;;;;;;;;5076371;28;20208;-54
2023/01/09 09:07:25;;;;;;;2.30;1.63;;;;;;;;;;5073450;28;20518;-54
2023/01/09 09:09:54;;;;;;;1.77;1.40;;;;;;;;;;5076041;28;20172;-54
2023/01/09 09:12:20;;;;;;;3.13;1.70;;;;;;;;;;5080575;28;20181;-54
2023/01/09 09:17:37;;;;;;;3.80;1.60;;;;;;;;;;5077043;28;20208;-54
2023/01/09 09:20:04;;;;;;;3.20;1.50;;;;;;;;;;5072109;28;20576;-54
2023/01/09 09:22:30;;;;;;;2.30;1.67;;;;;;;;;;5080149;28;20184;-54
2023/01/09 09:24:56;;;;;;;3.20;1.40;;;;;;;;;;5080560;28;20700;-54
2023/01/09 09:27:22;;;;;;;2.20;1.70;;;;;;;;;;5068605;28;20642;-54
2023/01/09 09:29:48;;;;;;;5.57;1.93;;;;;;;;;;5071446;28;20176;-54
2023/01/09 09:32:14;;;;;;;3.10;1.67;;;;;;;;;;5069399;28;20171;-54
2023/01/09 09:34:40;;;;;;;3.70;1.87;;;;;;;;;;5076483;28;20184;-54
2023/01/09 09:37:06;;;;;;;4.70;1.63;;;;;;;;;;5082352;28;20168;-54
2023/01/09 09:39:33;;;;;;;4.83;1.53;;;;;;;;;;5067059;28;20208;-54
2023/01/09 09:45:00;;;;;;;2.70;1.20;;;;;;;;;;5078239;28;20218;-54
2023/01/09 09:47:49;;;;;;;1.63;1.40;;;;;;;;;;5076851;28;20176;-54
2023/01/09 09:50:34;;;;;;;3.03;1.53;;;;;;;;;;5076059;28;20488;-54
2023/01/09 09:53:06;;;;;;;3.33;1.43;;;;;;;;;;5075341;28;20194;-54
2023/01/09 09:55:34;;;;;;;4.67;1.90;;;;;;;;;;5080644;28;20179;-54
2023/01/09 09:58:02;;;;;;;2.07;1.87;;;;;;;;;;5073718;28;20760;-54
2023/01/09 10:00:28;;;;;;;3.17;1.80;;;;;;;;;;5076001;28;20252;-54
2023/01/09 10:02:58;;;;;;;2.43;1.80;;;;;;;;;;5070574;28;20715;-54
2023/01/09 10:05:28;;;;;;;2.67;2.00;;;;;;;;;;5080932;28;20191;-54
2023/01/09 10:07:55;;;;;;;2.50;1.63;;;;;;;;;;5077869;28;20180;-54
2023/01/09 10:10:27;;;;;;;5.80;2.47;;;;;;;;;;5077954;28;20247;-54
2023/01/09 10:12:54;;;;;;;3.27;1.83;;;;;;;;;;5068335;28;20182;-54
2023/01/09 10:15:25;;;;;;;4.63;1.83;;;;;;;;;;5076297;28;20172;-54
2023/01/09 10:17:59;;;;;;;4.13;1.77;;;;;;;;;;5076201;28;20200;-54
2023/01/09 10:20:46;;;;;;;3.60;1.53;;;;;;;;;;5071569;28;20247;-54
2023/01/09 10:23:31;;;;;;;3.70;1.60;;;;;;;;;;5079483;28;20630;-54
2023/01/09 10:25:57;;;;;;;3.53;1.80;;;;;;;;;;5076118;28;20247;-54
2023/01/09 10:28:26;;;;;;;3.93;2.00;;;;;;;;;;5071103;28;20282;-54
2023/01/09 10:30:58;;;;;;;2.57;1.50;;;;;;;;;;5082757;28;20179;-54
2023/01/09 10:33:36;;;;;;;4.27;1.80;;;;;;;;;;5079640;28;20387;-54
2023/01/09 10:36:18;;;;;;;2.17;1.83;;;;;;;;;;5065271;28;20176;-54
2023/01/09 10:38:47;;;;;;;1.67;1.57;;;;;;;;;;5078297;28;20630;-54
2023/01/09 10:41:19;;;;;;;2.13;1.53;;;;;;;;;;5079193;28;20185;-54
2023/01/09 10:43:55;;;;;;;2.97;1.60;;;;;;;;;;5074438;28;20203;-55
2023/01/09 10:46:33;;;;;;;1.43;1.33;;;;;;;;;;5079994;28;20328;-54
2023/01/09 10:49:01;;;;;;;2.37;1.53;;;;;;;;;;5074874;28;20180;-54
2023/01/09 10:51:39;;;;;;;3.87;1.40;;;;;;;;;;5080072;28;20172;-54
2023/01/09 10:54:12;;;;;;;5.47;1.87;;;;;;;;;;5079783;28;20540;-54
2023/01/09 10:56:39;;;;;;;3.10;1.50;;;;;;;;;;5074805;28;20171;-55
2023/01/09 10:59:07;;;;;;;3.10;2.27;;;;;;;;;;5076717;28;20650;-54
2023/01/09 11:01:37;;;;;;;3.60;2.13;;;;;;;;;;5080908;28;20180;-54
2023/01/09 11:04:09;;;;;;;3.10;1.93;;;;;;;;;;5080803;28;20223;-54
2023/01/09 11:06:47;;;;;;;4.20;1.87;;;;;;;;;;5078697;28;20530;-54
2023/01/09 11:09:15;;;;;;;3.60;1.60;;;;;;;;;;5076432;28;20175;-54
2023/01/09 11:11:41;;;;;;;2.43;1.80;;;;;;;;;;5079942;28;20208;-54
2023/01/09 11:14:18;;;;;;;3.67;1.40;;;;;;;;;;5079591;28;20236;-54
2023/01/09 11:16:56;;;;;;;3.00;1.53;;;;;;;;;;5076169;28;20219;-54
2023/01/09 11:19:22;;;;;;;1.87;1.40;;;;;;;;;;5075333;28;20199;-54
2023/01/09 11:21:48;;;;;;;3.13;1.43;;;;;;;;;;5074918;28;20179;-54
2023/01/09 11:24:14;;;;;;;1.70;1.57;;;;;;;;;;5078397;28;20187;-54
2023/01/09 11:26:40;;;;;;;1.83;1.47;;;;;;;;;;5078918;28;20216;-54
2023/01/09 11:29:10;;;;;;;2.33;1.60;;;;;;;;;;5080045;28;20168;-54
2023/01/09 11:31:37;;;;;;;2.87;1.60;;;;;;;;;;5068328;28;20187;-54
2023/01/09 11:34:03;;;;;;;2.23;1.50;;;;;;;;;;5074018;28;20710;-54
2023/01/09 11:36:30;;;;;;;2.67;1.70;;;;;;;;;;5076976;28;20175;-54
2023/01/09 11:38:57;;;;;;;4.40;1.57;;;;;;;;;;5073562;28;20187;-54
2023/01/09 11:41:29;;;;;;;1.83;1.47;;;;;;;;;;5081942;28;20176;-54
2023/01/09 11:43:56;;;;;;;3.40;1.63;;;;;;;;;;5064319;28;20200;-54
2023/01/09 11:46:40;;;;;;;2.10;1.60;;;;;;;;;;5076714;28;20184;-54
2023/01/09 11:49:12;;;;;;;3.20;1.97;;;;;;;;;;5079294;28;20437;-54
2023/01/09 11:51:38;;;;;;;5.87;2.20;;;;;;;;;;5060146;28;20187;-54
2023/01/09 11:54:13;;;;;;;2.70;1.60;;;;;;;;;;5078898;28;20184;-54
2023/01/09 11:56:40;;;;;;;4.23;1.93;;;;;;;;;;5077968;28;20547;-54
2023/01/09 11:59:14;;;;;;;4.43;2.20;;;;;;;;;;5077456;28;20176;-54
2023/01/09 12:01:46;;;;;;;3.77;1.70;;;;;;;;;;5082087;28;20199;-54
2023/01/09 12:04:18;;;;;;;3.63;2.00;;;;;;;;;;5057353;28;20195;-54
2023/01/09 12:06:55;;;;;;;4.27;1.80;;;;;;;;;;5081181;28;20173;-54
2023/01/09 12:09:30;;;;;;;3.03;1.57;;;;;;;;;;5079084;28;20179;-54
2023/01/09 12:12:01;;;;;;;4.17;2.17;;;;;;;;;;5083172;28;20179;-54
2023/01/09 12:14:35;;;;;;;6.47;3.10;;;;;;;;;;5079661;28;20453;-54
2023/01/09 12:17:03;;;;;;;8.70;3.93;;;;;;;;;;5079189;28;20215;-54
2023/01/09 12:19:48;;;;;;;7.30;4.23;;;;;;;;;;5075592;28;20214;-53
2023/01/09 12:22:14;;;;;;;9.47;3.63;;;;;;;;;;5073627;28;20573;-53
2023/01/09 12:24:50;;;;;;;5.60;3.13;;;;;;;;;;5081071;28;20204;-53
2023/01/09 12:27:19;;;;;;;4.27;2.80;;;;;;;;;;5052250;28;20226;-53
2023/01/09 12:29:48;;;;;;;6.43;2.93;;;;;;;;;;5064550;28;20180;-53
2023/01/09 12:32:17;;;;;;;5.43;2.47;;;;;;;;;;5081587;28;20183;-54
2023/01/09 12:34:52;;;;;;;4.53;2.57;;;;;;;;;;5078492;28;20191;-53
2023/01/09 12:37:37;;;;;;;3.13;2.27;;;;;;;;;;5067805;28;20179;-54
2023/01/09 12:40:18;;;;;;;3.50;2.10;;;;;;;;;;5073922;28;20181;-54
2023/01/09 12:43:02;;;;;;;3.37;2.30;;;;;;;;;;5075683;28;20188;-54
2023/01/09 12:45:34;;;;;;;4.97;2.40;;;;;;;;;;5077249;28;20261;-54
2023/01/09 12:48:09;;;;;;;6.43;2.40;;;;;;;;;;5082161;28;20175;-53
2023/01/09 12:50:44;;;;;;;6.00;2.20;;;;;;;;;;5074259;28;20638;-53
2023/01/09 12:53:15;;;;;;;5.57;2.80;;;;;;;;;;5073687;28;20463;-53
2023/01/09 12:55:43;;;;;;;3.13;2.50;;;;;;;;;;5080604;28;20185;-53
2023/01/09 12:58:28;;;;;;;5.80;3.20;;;;;;;;;;5078915;28;20671;-53
2023/01/09 13:00:55;;;;;;;3.53;2.50;;;;;;;;;;5075023;28;20639;-53
2023/01/09 13:03:28;;;;;;;7.90;3.57;;;;;;;;;;5082578;28;20687;-53
2023/01/09 13:05:56;;;;;;;4.00;2.87;;;;;;;;;;5086129;28;20185;-54
2023/01/09 13:08:30;;;;;;;4.00;2.60;;;;;;;;;;5059425;28;20174;-53
2023/01/09 13:10:58;;;;;;;3.53;2.50;;;;;;;;;;5084229;28;20172;-53
2023/01/09 13:13:30;;;;;;;3.53;2.50;;;;;;;;;;5077933;28;20174;-53
2023/01/09 13:16:01;;;;;;;3.03;2.07;;;;;;;;;;5069615;28;20617;-53
2023/01/09 13:18:31;;;;;;;5.30;2.30;;;;;;;;;;5081372;28;20246;-53
2023/01/09 13:20:57;;;;;;;5.63;3.73;;;;;;;;;;5081463;28;20710;-53
2023/01/09 13:23:49;;;;;;;4.20;2.67;;;;;;;;;;5075606;28;20168;-53
2023/01/09 13:26:21;;;;;;;4.87;2.60;;;;;;;;;;5079970;28;20207;-54
2023/01/09 13:29:11;;;;;;;3.37;3.07;;;;;;;;;;5079604;28;20544;-53
2023/01/09 13:31:40;;;;;;;3.83;2.50;;;;;;;;;;5065344;28;20558;-53
2023/01/09 13:34:10;;;;;;;4.27;2.47;;;;;;;;;;5078014;28;20176;-53
2023/01/09 13:36:48;;;;;;;3.13;2.40;;;;;;;;;;5076622;28;20184;-53
2023/01/09 13:39:20;;;;;;;2.33;1.97;;;;;;;;;;5081386;28;20217;-53
2023/01/09 13:44:32;;;;;;;2.90;2.10;;;;;;;;;;5079516;28;20215;-53
2023/01/09 13:47:01;;;;;;;2.27;2.07;;;;;;;;;;5074951;28;20729;-54
2023/01/09 13:49:36;;;;;;;4.00;2.43;;;;;;;;;;5070686;28;20335;-54
2023/01/09 13:52:03;;;;;;;3.43;2.27;;;;;;;;;;5071944;28;20183;-53
2023/01/09 13:54:48;;;;;;;5.07;2.63;;;;;;;;;;5073504;28;20656;-53
2023/01/09 13:57:18;;;;;;;4.27;2.80;;;;;;;;;;5076660;28;20226;-53
2023/01/09 13:59:44;;;;;;;3.70;2.97;;;;;;;;;;5070825;28;20185;-54
2023/01/09 14:02:29;;;;;;;8.93;2.70;;;;;;;;;;5079120;28;20657;-53
2023/01/09 14:04:55;;;;;;;4.33;2.50;;;;;;;;;;5073905;28;20705;-54
2023/01/09 14:07:31;;;;;;;3.50;2.73;;;;;;;;;;5079930;28;20171;-53
2023/01/09 14:09:59;;;;;;;6.13;3.60;;;;;;;;;;5072373;28;20168;-53
2023/01/09 14:12:25;;;;;;;4.83;2.97;;;;;;;;;;5079478;28;20206;-54
2023/01/09 14:14:53;;;;;;;4.93;3.30;;;;;;;;;;5074500;28;20654;-53
2023/01/09 14:17:27;;;;;;;5.13;3.70;;;;;;;;;;5074570;28;20698;-53
2023/01/09 14:19:55;;;;;;;5.43;3.93;;;;;;;;;;5073829;28;20171;-53
2023/01/09 14:22:29;;;;;;;5.80;3.80;;;;;;;;;;5077877;28;20301;-54
2023/01/09 14:25:00;;;;;;;6.70;3.90;;;;;;;;;;5080076;28;20709;-53
2023/01/09 14:27:45;;;;;;;5.73;3.90;;;;;;;;;;5081824;28;20211;-53
2023/01/09 14:30:26;;;;;;;6.37;3.50;;;;;;;;;;5054752;28;20175;-53
2023/01/09 14:32:56;;;;;;;7.17;4.20;;;;;;;;;;5075213;28;21292;-53
2023/01/09 14:35:25;;;;;;;6.83;4.00;;;;;;;;;;5060748;28;20307;-54
2023/01/09 14:38:10;;;;;;;4.83;3.10;;;;;;;;;;5072218;28;20638;-54
2023/01/09 14:40:36;;;;;;;7.07;3.83;;;;;;;;;;5074233;28;20672;-53
2023/01/09 14:43:20;;;;;;;4.27;3.13;;;;;;;;;;5073002;28;20183;-53
2023/01/09 14:45:47;;;;;;;5.63;3.20;;;;;;;;;;5041832;28;20211;-53
2023/01/09 14:48:13;;;;;;;8.20;3.77;;;;;;;;;;5073517;28;20240;-53
2023/01/09 14:50:45;;;;;;;5.00;2.40;;;;;;;;;;5071771;28;20609;-53
2023/01/09 14:53:30;;;;;;;3.30;2.70;;;;;;;;;;5074516;28;20187;-53
2023/01/09 14:55:58;;;;;;;3.10;2.60;;;;;;;;;;5074117;28;20251;-53
2023/01/09 14:58:28;;;;;;;3.00;2.70;;;;;;;;;;5076807;28;20160;-53
2023/01/09 15:01:09;;;;;;;3.83;2.27;;;;;;;;;;5081145;28;20662;-53
2023/01/09 15:03:50;;;;;;;3.07;2.70;;;;;;;;;;5073182;28;20213;-53
2023/01/09 15:06:22;;;;;;;2.83;2.50;;;;;;;;;;5077579;28;20178;-53
2023/01/09 15:08:59;;;;;;;4.03;2.67;;;;;;;;;;5076477;28;20179;-53
2023/01/09 15:11:26;;;;;;;3.03;2.23;;;;;;;;;;5082441;28;20180;-53
2023/01/09 15:13:53;;;;;;;4.90;2.70;;;;;;;;;;5071066;28;20176;-53